Time;durP1;ratioP1;P1;durP2;ratioP2;P2;SDS_P1;SDS_P2;PMS_P1;PMS_P2;Temp;Humidity;BMP_temperature;BMP_pressure;BME280_temperature;BME280_humidity;BME280_pressure;Samples;Min_cycle;Max_cycle;Signal;HPM_P1;HPM_P2
2021/06/08 00:01:28;;;;;;;0.10;0.10;;;18.80;65.80;;;;;;5083545;28;20029;-80
2021/06/08 00:03:54;;;;;;;0.20;0.20;;;18.70;66.00;;;;;;5076642;28;20084;-80
2021/06/08 00:06:19;;;;;;;0.10;0.10;;;18.70;66.10;;;;;;5060371;28;20029;-80
2021/06/08 00:08:45;;;;;;;0.20;0.20;;;18.60;66.10;;;;;;5058038;28;20108;-80
2021/06/08 00:11:11;;;;;;;0.10;0.10;;;18.60;66.50;;;;;;5058177;28;20025;-79
2021/06/08 00:13:37;;;;;;;0.22;0.10;;;18.50;66.50;;;;;;5061187;28;20040;-80
2021/06/08 00:16:03;;;;;;;0.30;0.20;;;18.50;66.70;;;;;;5077948;28;20024;-80
2021/06/08 00:18:29;;;;;;;0.20;0.20;;;18.50;66.40;;;;;;5078004;28;20086;-80
2021/06/08 00:20:56;;;;;;;0.15;0.15;;;18.50;66.60;;;;;;5077764;28;20032;-80
2021/06/08 00:23:22;;;;;;;0.20;0.20;;;18.50;66.50;;;;;;5062013;28;20041;-79
2021/06/08 00:25:48;;;;;;;0.22;0.20;;;18.40;66.90;;;;;;5057732;28;20045;-80
2021/06/08 00:28:13;;;;;;;0.20;0.13;;;18.40;66.50;;;;;;5057451;28;20560;-80
2021/06/08 00:30:39;;;;;;;0.20;0.20;;;18.30;66.90;;;;;;5057739;28;20025;-80
2021/06/08 00:33:05;;;;;;;0.10;0.10;;;18.30;66.70;;;;;;5057888;28;20033;-79
2021/06/08 00:35:32;;;;;;;0.20;0.20;;;18.20;67.10;;;;;;5057304;28;20029;-79
2021/06/08 00:37:58;;;;;;;0.30;0.20;;;18.20;67.80;;;;;;5057611;28;20033;-80
2021/06/08 00:40:26;;;;;;;0.20;0.17;;;18.10;67.80;;;;;;5071604;28;20028;-80
2021/06/08 00:42:53;;;;;;;0.20;0.20;;;18.00;68.00;;;;;;5057566;28;20132;-79
2021/06/08 00:45:19;;;;;;;0.20;0.15;;;18.10;67.80;;;;;;5057356;28;20029;-80
2021/06/08 00:47:45;;;;;;;0.20;0.20;;;18.00;67.90;;;;;;5071394;28;20094;-79
2021/06/08 00:50:11;;;;;;;0.20;0.20;;;18.00;67.70;;;;;;5057417;28;20029;-79
2021/06/08 00:52:37;;;;;;;0.30;0.20;;;18.00;67.70;;;;;;5057631;28;20471;-80
2021/06/08 00:55:03;;;;;;;0.20;0.20;;;17.90;68.10;;;;;;5057181;28;20157;-80
2021/06/08 00:57:29;;;;;;;0.20;0.20;;;17.90;68.00;;;;;;5071343;28;20078;-79
2021/06/08 00:59:54;;;;;;;0.22;0.20;;;17.80;68.10;;;;;;5084676;28;20099;-79
2021/06/08 01:02:40;;;;;;;0.20;0.20;;;17.80;68.00;;;;;;5097309;28;20103;-80
2021/06/08 01:05:08;;;;;;;0.20;0.10;;;17.80;68.20;;;;;;5065481;28;20561;-79
2021/06/08 01:07:34;;;;;;;0.10;0.10;;;17.80;68.00;;;;;;5056884;28;20057;-79
2021/06/08 01:10:02;;;;;;;0.30;0.20;;;17.80;68.20;;;;;;5056697;28;20120;-79
2021/06/08 01:12:28;;;;;;;0.30;0.20;;;17.80;68.00;;;;;;5056882;28;20028;-79
2021/06/08 01:14:54;;;;;;;0.20;0.20;;;17.70;68.30;;;;;;5056188;28;20028;-79
2021/06/08 01:17:23;;;;;;;0.10;0.10;;;17.70;68.30;;;;;;5056838;28;20037;-80
2021/06/08 01:19:53;;;;;;;0.20;0.20;;;17.70;68.30;;;;;;5056667;28;20035;-79
2021/06/08 01:22:19;;;;;;;0.20;0.20;;;17.70;68.10;;;;;;5056786;28;20033;-79
2021/06/08 01:24:45;;;;;;;0.20;0.20;;;17.70;68.10;;;;;;5058478;28;20040;-79
2021/06/08 01:27:11;;;;;;;0.20;0.20;;;17.70;68.20;;;;;;5056396;28;20122;-79
2021/06/08 01:29:38;;;;;;;0.20;0.20;;;17.70;68.10;;;;;;5056500;28;20028;-79
2021/06/08 01:32:05;;;;;;;0.20;0.20;;;17.60;68.20;;;;;;5056322;28;20035;-79
2021/06/08 01:34:45;;;;;;;;;;;;;;;;;;;;;
2021/06/08 01:37:14;;;;;;;0.20;0.20;;;17.50;68.30;;;;;;5056672;28;20472;-79
2021/06/08 01:39:41;;;;;;;0.10;0.10;;;17.50;68.40;;;;;;5074121;28;20132;-79
2021/06/08 01:42:08;;;;;;;0.20;0.20;;;17.50;68.70;;;;;;5074990;28;20021;-79
2021/06/08 01:44:34;;;;;;;0.20;0.20;;;17.40;68.70;;;;;;5076214;28;20020;-79
2021/06/08 01:47:00;;;;;;;0.28;0.20;;;17.40;68.60;;;;;;5074232;28;20482;-79
2021/06/08 01:49:26;;;;;;;0.20;0.20;;;17.40;68.70;;;;;;5059871;28;20021;-79
2021/06/08 01:52:02;;;;;;;0.20;0.20;;;17.40;68.80;;;;;;5070731;28;20017;-79
2021/06/08 01:54:45;;;;;;;0.30;0.20;;;17.30;69.00;;;;;;5063040;28;20103;-79
2021/06/08 01:57:26;;;;;;;0.20;0.20;;;17.30;68.80;;;;;;5054614;28;20032;-79
2021/06/08 02:00:08;;;;;;;0.20;0.20;;;17.30;68.80;;;;;;5068260;28;20025;-79
2021/06/08 02:03:16;;;;;;;0.20;0.20;;;17.30;68.90;;;;;;5055989;28;20040;-79
2021/06/08 02:05:50;;;;;;;0.30;0.20;;;17.20;69.00;;;;;;5054952;28;20211;-79
2021/06/08 02:08:19;;;;;;;0.20;0.20;;;17.20;69.10;;;;;;5073034;28;20071;-79
2021/06/08 02:11:08;;;;;;;0.20;0.20;;;17.20;69.10;;;;;;5075708;28;20080;-79
2021/06/08 02:14:00;;;;;;;0.20;0.20;;;17.20;69.10;;;;;;5075176;28;20067;-79
2021/06/08 02:16:42;;;;;;;0.22;0.20;;;17.20;69.10;;;;;;5055585;28;20049;-79
2021/06/08 02:19:10;;;;;;;0.20;0.20;;;17.20;69.10;;;;;;5054118;28;20033;-79
2021/06/08 02:21:40;;;;;;;0.20;0.20;;;17.20;68.80;;;;;;5055371;28;20111;-79
2021/06/08 02:24:07;;;;;;;0.20;0.20;;;17.10;69.30;;;;;;5055385;28;20479;-79
2021/06/08 02:26:36;;;;;;;0.25;0.20;;;17.10;69.00;;;;;;5053532;28;20048;-79
2021/06/08 02:29:04;;;;;;;0.20;0.20;;;17.10;69.40;;;;;;5055485;28;20052;-79
2021/06/08 02:31:38;;;;;;;0.22;0.20;;;17.00;69.40;;;;;;5055439;28;20140;-79
2021/06/08 02:34:05;;;;;;;0.20;0.20;;;17.00;69.70;;;;;;5055224;28;20029;-79
2021/06/08 02:36:32;;;;;;;0.15;0.15;;;17.00;69.80;;;;;;5054393;28;20039;-79
2021/06/08 02:38:58;;;;;;;0.10;0.10;;;17.00;69.80;;;;;;5055308;28;20024;-79
2021/06/08 02:41:26;;;;;;;0.20;0.20;;;16.90;70.10;;;;;;5055195;28;20537;-79
2021/06/08 02:43:53;;;;;;;0.20;0.20;;;16.80;70.10;;;;;;5070897;28;20078;-79
2021/06/08 02:46:22;;;;;;;0.20;0.20;;;16.80;70.20;;;;;;5055225;28;20025;-79
2021/06/08 02:48:49;;;;;;;0.20;0.20;;;16.80;69.60;;;;;;5055018;28;20108;-79
2021/06/08 02:51:16;;;;;;;0.20;0.20;;;16.70;70.00;;;;;;5070628;28;20130;-78
2021/06/08 02:53:42;;;;;;;0.20;0.20;;;16.70;70.30;;;;;;5055253;28;20014;-79
2021/06/08 02:56:08;;;;;;;0.30;0.20;;;16.70;70.70;;;;;;5069820;28;20107;-79
2021/06/08 02:58:36;;;;;;;0.20;0.20;;;16.70;70.50;;;;;;5076000;28;20411;-79
2021/06/08 03:01:05;;;;;;;0.20;0.20;;;16.80;69.90;;;;;;5080182;28;20025;-79
2021/06/08 03:03:35;;;;;;;0.20;0.20;;;16.80;69.30;;;;;;5053780;28;20032;-79
2021/06/08 03:06:07;;;;;;;;;;;16.80;69.30;;;;;;5055576;28;20108;-79
2021/06/08 03:08:54;;;;;;;0.25;0.20;;;16.70;69.50;;;;;;5054937;28;19915;-79
2021/06/08 03:11:40;;;;;;;0.20;0.20;;;16.70;69.40;;;;;;5054936;28;20029;-79
2021/06/08 03:14:08;;;;;;;0.20;0.20;;;16.70;69.80;;;;;;5055040;28;20057;-79
2021/06/08 03:16:38;;;;;;;0.20;0.20;;;16.70;69.80;;;;;;5054917;28;20103;-79
2021/06/08 03:19:06;;;;;;;0.20;0.20;;;16.70;69.70;;;;;;5054835;28;20037;-79
2021/06/08 03:21:40;;;;;;;0.20;0.20;;;16.70;69.70;;;;;;5054924;28;20033;-79
2021/06/08 03:24:09;;;;;;;0.20;0.20;;;16.70;69.30;;;;;;5054891;28;20025;-79
2021/06/08 03:26:36;;;;;;;0.20;0.20;;;16.70;69.40;;;;;;5054827;28;20111;-79
2021/06/08 03:29:05;;;;;;;0.13;0.13;;;16.60;69.60;;;;;;5054584;28;20031;-79
2021/06/08 03:31:33;;;;;;;0.20;0.20;;;16.50;69.90;;;;;;5054865;28;20021;-79
2021/06/08 03:34:01;;;;;;;0.20;0.20;;;16.50;69.90;;;;;;5054608;28;20079;-79
2021/06/08 03:36:28;;;;;;;0.30;0.20;;;16.50;70.00;;;;;;5055137;28;20025;-79
2021/06/08 03:38:54;;;;;;;0.32;0.22;;;16.50;70.00;;;;;;5063876;28;20474;-79
2021/06/08 03:41:21;;;;;;;0.30;0.20;;;16.50;70.00;;;;;;5078500;28;20082;-79
2021/06/08 03:43:48;;;;;;;0.20;0.20;;;16.40;70.20;;;;;;5075702;28;20422;-79
2021/06/08 03:46:14;;;;;;;0.20;0.20;;;16.40;70.20;;;;;;5057504;28;20094;-79
2021/06/08 03:48:40;;;;;;;0.30;0.30;;;16.40;70.10;;;;;;5058298;28;20475;-79
2021/06/08 03:51:21;;;;;;;0.30;0.20;;;16.30;70.70;;;;;;5058404;28;20097;-79
2021/06/08 03:53:47;;;;;;;0.20;0.20;;;16.30;70.50;;;;;;5058227;28;20025;-79
2021/06/08 03:56:15;;;;;;;0.20;0.20;;;16.30;70.40;;;;;;5058243;28;20353;-78
2021/06/08 03:58:41;;;;;;;0.20;0.20;;;16.30;70.50;;;;;;5079908;28;20032;-79
2021/06/08 04:01:07;;;;;;;0.20;0.20;;;16.20;70.80;;;;;;5098471;28;20478;-79
2021/06/08 04:03:36;;;;;;;0.20;0.20;;;16.20;71.10;;;;;;5098325;28;20024;-79
2021/06/08 04:06:02;;;;;;;0.20;0.20;;;16.20;70.70;;;;;;5090775;28;20032;-79
2021/06/08 04:08:31;;;;;;;0.20;0.20;;;16.20;70.70;;;;;;5057991;28;20440;-79
2021/06/08 04:10:57;;;;;;;0.20;0.20;;;16.20;70.80;;;;;;5073326;28;20025;-79
2021/06/08 04:13:23;;;;;;;0.20;0.20;;;16.10;71.00;;;;;;5072323;28;20032;-79
2021/06/08 04:15:50;;;;;;;0.20;0.20;;;16.10;71.10;;;;;;5073686;28;20029;-79
2021/06/08 04:18:16;;;;;;;0.20;0.20;;;16.00;71.30;;;;;;5058010;28;20483;-79
2021/06/08 04:20:43;;;;;;;0.20;0.20;;;16.00;71.20;;;;;;5057703;28;20071;-79
2021/06/08 04:23:09;;;;;;;0.40;0.28;;;16.00;71.20;;;;;;5057937;28;20024;-79
2021/06/08 04:25:35;;;;;;;0.20;0.20;;;16.10;71.40;;;;;;5057541;28;20049;-79
2021/06/08 04:28:02;;;;;;;0.20;0.20;;;16.20;71.00;;;;;;5057608;28;20037;-79
2021/06/08 04:30:27;;;;;;;0.20;0.20;;;16.20;70.70;;;;;;5056968;28;20029;-79
2021/06/08 04:32:53;;;;;;;0.30;0.30;;;16.30;70.10;;;;;;5056675;28;20032;-79
2021/06/08 04:35:19;;;;;;;0.20;0.20;;;16.30;70.00;;;;;;5057537;28;20033;-79
2021/06/08 04:37:46;;;;;;;0.45;0.30;;;16.30;70.00;;;;;;5057442;28;20088;-79
2021/06/08 04:40:13;;;;;;;0.20;0.20;;;16.20;69.80;;;;;;5057539;28;20043;-79
2021/06/08 04:42:42;;;;;;;0.30;0.30;;;16.20;70.20;;;;;;5057399;28;20020;-79
2021/06/08 04:45:08;;;;;;;0.20;0.20;;;16.10;70.20;;;;;;5057721;28;20036;-79
2021/06/08 04:47:34;;;;;;;0.20;0.20;;;16.10;70.60;;;;;;5057332;28;20031;-82
2021/06/08 05:56:09;;;;;;;0.20;0.20;;;14.90;79.80;;;;;;5113370;27;20499;-77
2021/06/08 05:58:36;;;;;;;0.20;0.20;;;15.00;79.70;;;;;;5089449;28;20582;-76
2021/06/08 06:01:04;;;;;;;0.20;0.20;;;15.40;78.90;;;;;;5103074;28;20032;-76
2021/06/08 06:03:32;;;;;;;0.20;0.20;;;15.80;77.80;;;;;;5091375;28;20031;-77
2021/06/08 06:05:58;;;;;;;0.20;0.20;;;16.10;76.30;;;;;;5073086;28;20039;-77
2021/06/08 06:08:27;;;;;;;0.20;0.20;;;16.40;75.30;;;;;;5073541;28;20494;-77
2021/06/08 06:10:53;;;;;;;0.20;0.20;;;16.60;74.50;;;;;;5090082;28;20371;-76
2021/06/08 06:13:22;;;;;;;0.25;0.20;;;16.80;74.10;;;;;;5085738;28;20548;-76
2021/06/08 06:15:50;;;;;;;0.52;0.32;;;16.90;74.10;;;;;;5087695;28;20508;-76
2021/06/08 06:18:18;;;;;;;0.30;0.20;;;16.90;74.00;;;;;;5081233;28;20074;-76
2021/06/08 06:20:45;;;;;;;0.20;0.20;;;17.00;74.30;;;;;;5086530;28;20020;-75
2021/06/08 06:23:11;;;;;;;0.20;0.20;;;17.10;73.80;;;;;;5088950;28;20074;-75
2021/06/08 06:25:37;;;;;;;0.10;0.10;;;17.20;74.40;;;;;;5089941;28;20059;-75
2021/06/08 06:28:04;;;;;;;0.10;0.10;;;17.20;73.70;;;;;;5085192;28;20435;-76
2021/06/08 06:30:32;;;;;;;0.15;0.15;;;17.30;74.00;;;;;;5087260;28;20028;-76
2021/06/08 06:32:58;;;;;;;0.47;0.20;;;17.30;74.00;;;;;;5088950;28;20020;-75
2021/06/08 06:35:24;;;;;;;0.10;0.10;;;17.30;74.50;;;;;;5086334;28;20533;-75
2021/06/08 06:37:52;;;;;;;0.20;0.20;;;17.40;73.50;;;;;;5070574;28;20394;-75
2021/06/08 06:40:24;;;;;;;0.20;0.20;;;17.50;74.70;;;;;;5084949;28;20513;-75
2021/06/08 06:42:52;;;;;;;0.20;0.20;;;17.60;73.50;;;;;;5078259;28;20055;-76
2021/06/08 06:45:22;;;;;;;0.20;0.15;;;17.70;73.10;;;;;;5070655;28;20114;-75
2021/06/08 06:47:49;;;;;;;0.10;0.10;;;17.80;73.50;;;;;;5071252;28;20029;-76
2021/06/08 06:50:15;;;;;;;0.20;0.20;;;17.80;74.60;;;;;;5068924;28;20438;-76
2021/06/08 06:52:55;;;;;;;0.10;0.10;;;17.90;74.00;;;;;;5084400;28;20422;-76
2021/06/08 06:55:21;;;;;;;0.20;0.20;;;17.90;73.80;;;;;;5087752;28;20105;-77
2021/06/08 06:57:47;;;;;;;0.20;0.10;;;18.00;73.30;;;;;;5085756;28;20037;-77
2021/06/08 07:00:15;;;;;;;0.20;0.20;;;18.10;73.10;;;;;;5103152;28;20098;-77
2021/06/08 07:02:44;;;;;;;0.10;0.10;;;18.20;73.40;;;;;;5109566;28;20110;-77
2021/06/08 07:05:13;;;;;;;0.10;0.10;;;18.30;73.00;;;;;;5107802;28;20024;-77
2021/06/08 07:07:40;;;;;;;0.10;0.10;;;18.30;71.90;;;;;;5086895;28;20028;-77
2021/06/08 07:10:10;;;;;;;0.10;0.10;;;18.50;70.80;;;;;;5109384;28;20029;-77
2021/06/08 07:12:39;;;;;;;0.17;0.10;;;18.50;70.50;;;;;;5076892;28;20024;-77
2021/06/08 07:15:05;;;;;;;0.20;0.10;;;18.70;71.00;;;;;;5067703;28;20040;-77
2021/06/08 07:17:32;;;;;;;0.10;0.10;;;18.80;70.30;;;;;;5057203;28;20023;-77
2021/06/08 07:19:59;;;;;;;0.10;0.10;;;18.90;70.40;;;;;;5057130;28;20025;-77
2021/06/08 07:22:29;;;;;;;0.20;0.20;;;19.30;69.90;;;;;;5071021;28;20043;-77
2021/06/08 07:24:55;;;;;;;0.15;0.13;;;20.00;67.60;;;;;;5073861;28;20028;-78
2021/06/08 07:27:21;;;;;;;0.10;0.10;;;22.40;60.70;;;;;;5074600;28;20545;-77
2021/06/08 07:29:48;;;;;;;0.10;0.10;;;25.70;51.30;;;;;;5056625;28;20170;-77
2021/06/08 07:32:22;;;;;;;0.00;0.00;;;28.10;45.10;;;;;;5056814;28;20029;-77
2021/06/08 07:35:13;;;;;;;0.00;0.00;;;30.30;41.10;;;;;;5060766;28;20032;-77
2021/06/08 07:37:44;;;;;;;0.00;0.00;;;31.70;37.30;;;;;;5060606;28;20503;-78
2021/06/08 07:40:16;;;;;;;0.00;0.00;;;33.10;35.50;;;;;;5056432;28;20040;-78
2021/06/08 07:42:49;;;;;;;0.10;0.00;;;33.70;33.00;;;;;;5060362;28;20017;-77
2021/06/08 07:45:20;;;;;;;0.30;0.10;;;34.60;31.30;;;;;;5074961;28;20070;-78
2021/06/08 07:47:50;;;;;;;0.08;0.00;;;35.30;30.20;;;;;;5075080;28;20023;-78
2021/06/08 07:50:17;;;;;;;0.00;0.00;;;35.90;30.60;;;;;;5071468;28;20032;-77
2021/06/08 07:52:44;;;;;;;0.00;0.00;;;36.30;29.60;;;;;;5076574;28;20020;-78
2021/06/08 07:55:13;;;;;;;0.00;0.00;;;36.90;28.70;;;;;;5075101;28;20048;-78
2021/06/08 07:57:39;;;;;;;0.00;0.00;;;36.60;27.60;;;;;;5076400;28;20490;-78
2021/06/08 08:00:08;;;;;;;0.20;0.05;;;36.80;28.70;;;;;;5071957;28;20453;-78
2021/06/08 08:02:35;;;;;;;0.10;0.10;;;37.20;28.10;;;;;;5069728;28;20031;-77
2021/06/08 08:05:08;;;;;;;0.05;0.05;;;37.50;28.00;;;;;;5076178;28;20024;-78
2021/06/08 08:07:35;;;;;;;0.00;0.00;;;38.10;27.20;;;;;;5066331;28;20028;-78
2021/06/08 08:10:01;;;;;;;0.00;0.00;;;38.10;26.70;;;;;;5056246;28;20021;-78
2021/06/08 08:12:26;;;;;;;0.00;0.00;;;38.60;26.40;;;;;;5059948;28;20031;-78
2021/06/08 08:14:53;;;;;;;0.10;0.10;;;38.50;26.00;;;;;;5107622;28;20131;-78
2021/06/08 08:17:26;;;;;;;0.10;0.10;;;38.60;26.70;;;;;;5074949;28;20075;-78
2021/06/08 08:19:53;;;;;;;0.10;0.10;;;39.30;25.60;;;;;;5058882;28;20044;-78
2021/06/08 08:22:19;;;;;;;0.10;0.10;;;39.00;25.90;;;;;;5071193;28;20025;-78
2021/06/08 08:24:45;;;;;;;0.17;0.10;;;39.00;26.20;;;;;;5055389;28;20033;-78
2021/06/08 08:27:13;;;;;;;0.10;0.10;;;39.00;25.60;;;;;;5070988;28;20032;-78
2021/06/08 08:29:40;;;;;;;0.00;0.00;;;38.80;26.20;;;;;;5071152;28;20491;-78
2021/06/08 08:32:07;;;;;;;0.20;0.10;;;38.80;26.30;;;;;;5070199;28;20025;-78
2021/06/08 08:34:33;;;;;;;0.17;0.10;;;38.30;26.40;;;;;;5075931;28;20029;-78
2021/06/08 08:37:00;;;;;;;0.10;0.10;;;38.30;26.40;;;;;;5072596;28;20074;-78
2021/06/08 08:39:26;;;;;;;0.00;0.00;;;37.80;27.00;;;;;;5071837;28;20430;-78
2021/06/08 08:41:53;;;;;;;0.10;0.10;;;37.80;26.70;;;;;;5055455;28;20024;-76
2021/06/08 08:44:19;;;;;;;0.10;0.10;;;37.90;26.50;;;;;;5061433;28;20128;-77
2021/06/08 08:46:45;;;;;;;0.00;0.00;;;37.70;27.60;;;;;;5072224;28;20056;-78
2021/06/08 08:49:11;;;;;;;0.00;0.00;;;37.30;27.90;;;;;;5074952;28;20029;-78
2021/06/08 08:51:38;;;;;;;0.10;0.10;;;37.10;27.60;;;;;;5069593;28;20033;-78
2021/06/08 08:54:05;;;;;;;0.00;0.00;;;37.80;27.20;;;;;;5058007;28;20243;-78
2021/06/08 08:56:34;;;;;;;0.10;0.10;;;37.80;26.60;;;;;;5062625;28;20032;-78
2021/06/08 08:59:11;;;;;;;0.10;0.10;;;37.90;27.50;;;;;;5072526;28;20546;-78
2021/06/08 09:01:40;;;;;;;0.10;0.10;;;38.00;26.40;;;;;;5070771;28;20025;-78
2021/06/08 09:04:07;;;;;;;0.10;0.10;;;37.60;26.90;;;;;;5049596;28;20097;-78
2021/06/08 09:06:34;;;;;;;0.00;0.00;;;37.70;26.60;;;;;;5099140;28;20098;-78
2021/06/08 09:09:05;;;;;;;0.10;0.10;;;37.80;27.80;;;;;;5066955;28;20025;-78
2021/06/08 09:11:35;;;;;;;0.17;0.10;;;38.00;28.00;;;;;;5068182;28;20789;-78
2021/06/08 09:14:01;;;;;;;0.13;0.10;;;38.30;27.70;;;;;;5074235;28;20089;-78
2021/06/08 09:16:26;;;;;;;0.10;0.10;;;38.30;26.60;;;;;;5071431;28;20021;-79
2021/06/08 09:18:53;;;;;;;0.10;0.10;;;38.30;25.80;;;;;;5054637;28;20029;-79
2021/06/08 09:21:25;;;;;;;0.00;0.00;;;37.90;27.60;;;;;;5053000;28;20116;-79
2021/06/08 09:23:51;;;;;;;0.00;0.00;;;38.50;26.80;;;;;;5054700;28;20032;-78
2021/06/08 09:26:18;;;;;;;0.20;0.10;;;38.70;25.50;;;;;;5054760;28;20032;-79
2021/06/08 09:28:45;;;;;;;0.20;0.10;;;38.30;26.80;;;;;;5062849;28;20078;-79
2021/06/08 09:31:21;;;;;;;0.10;0.10;;;38.40;25.50;;;;;;5060794;28;20036;-79
2021/06/08 09:33:50;;;;;;;0.10;0.10;;;38.40;26.40;;;;;;5078207;28;20070;-79
2021/06/08 09:36:24;;;;;;;0.10;0.10;;;38.40;26.20;;;;;;5072966;28;20101;-79
2021/06/08 09:38:50;;;;;;;0.10;0.10;;;38.70;24.50;;;;;;5069366;28;20074;-79
2021/06/08 09:41:49;;;;;;;0.10;0.10;;;38.20;25.20;;;;;;5074095;28;20089;-79
2021/06/08 09:44:16;;;;;;;0.20;0.10;;;38.20;25.60;;;;;;5072711;28;20162;-79
2021/06/08 09:46:50;;;;;;;0.10;0.10;;;38.30;26.50;;;;;;5074116;28;20490;-79
2021/06/08 09:49:32;;;;;;;0.10;0.10;;;38.20;25.80;;;;;;5074205;28;20127;-79
2021/06/08 09:52:00;;;;;;;0.00;0.00;;;38.40;26.90;;;;;;5074141;28;20090;-79
2021/06/08 09:54:34;;;;;;;0.10;0.00;;;38.60;26.30;;;;;;5058306;28;20131;-79
2021/06/08 09:57:28;;;;;;;0.10;0.10;;;38.30;26.70;;;;;;5054268;28;20387;-79
2021/06/08 10:00:06;;;;;;;0.10;0.10;;;38.00;26.20;;;;;;5081487;28;20020;-79
2021/06/08 10:05:27;;;;;;;0.03;0.03;;;38.60;26.70;;;;;;5054318;28;20091;-79
2021/06/08 10:08:13;;;;;;;0.08;0.08;;;38.20;24.90;;;;;;5095409;28;20033;-79
2021/06/08 10:10:46;;;;;;;0.10;0.10;;;38.30;26.20;;;;;;5068875;28;20036;-79
2021/06/08 10:13:22;;;;;;;0.08;0.08;;;38.40;25.90;;;;;;5069132;28;20499;-79
2021/06/08 10:15:55;;;;;;;0.10;0.10;;;37.90;25.20;;;;;;5054403;28;20071;-79
2021/06/08 10:18:21;;;;;;;0.20;0.10;;;37.30;26.00;;;;;;5064799;28;20424;-80
2021/06/08 10:20:55;;;;;;;0.00;0.00;;;37.30;25.50;;;;;;5062317;28;20041;-79
2021/06/08 10:23:23;;;;;;;0.10;0.00;;;37.20;27.30;;;;;;5069667;28;20036;-80
2021/06/08 10:25:52;;;;;;;0.08;0.08;;;37.00;27.20;;;;;;5072895;28;20020;-85
2021/06/08 10:28:18;;;;;;;0.00;0.00;;;36.90;26.60;;;;;;5054134;28;20044;-86
2021/06/08 10:30:45;;;;;;;0.10;0.10;;;36.80;27.60;;;;;;5071377;28;20036;-80
2021/06/08 10:33:11;;;;;;;0.00;0.00;;;36.90;26.60;;;;;;5073588;28;20023;-78
2021/06/08 10:35:38;;;;;;;0.00;0.00;;;36.70;27.60;;;;;;5069667;28;20031;-80
2021/06/08 10:38:06;;;;;;;0.00;0.00;;;35.90;25.90;;;;;;5072337;28;20129;-79
2021/06/08 10:40:33;;;;;;;0.10;0.00;;;35.10;28.70;;;;;;5071395;28;20063;-78
2021/06/08 10:42:58;;;;;;;0.00;0.00;;;34.40;28.40;;;;;;5061527;28;20037;-77
2021/06/08 10:45:33;;;;;;;0.00;0.00;;;33.80;29.40;;;;;;5059853;28;20150;-78
2021/06/08 10:48:06;;;;;;;0.00;0.00;;;33.20;29.80;;;;;;5077812;28;20040;-77
2021/06/08 10:50:34;;;;;;;0.00;0.00;;;32.50;31.50;;;;;;5060029;28;20033;-77
2021/06/08 10:53:00;;;;;;;0.00;0.00;;;32.30;30.90;;;;;;5057204;28;20021;-77
2021/06/08 10:55:32;;;;;;;0.00;0.00;;;32.10;31.70;;;;;;5057651;28;20117;-77
2021/06/08 10:57:58;;;;;;;0.00;0.00;;;31.80;31.90;;;;;;5061237;28;20486;-75
2021/06/08 11:00:23;;;;;;;0.00;0.00;;;31.70;32.20;;;;;;5078616;28;20031;-77
2021/06/08 11:02:52;;;;;;;0.00;0.00;;;31.40;32.00;;;;;;5073123;28;20452;-80
2021/06/08 11:05:19;;;;;;;0.00;0.00;;;31.30;31.90;;;;;;5073802;28;20027;-74
2021/06/08 11:07:49;;;;;;;0.00;0.00;;;31.30;34.70;;;;;;5070546;28;20032;-76
2021/06/08 11:10:27;;;;;;;0.20;0.00;;;31.10;33.40;;;;;;5072081;28;20024;-76
2021/06/08 11:13:12;;;;;;;0.00;0.00;;;31.10;32.20;;;;;;5073163;28;20024;-76
2021/06/08 11:15:43;;;;;;;0.00;0.00;;;31.20;34.70;;;;;;5075553;28;20028;-76
2021/06/08 11:18:25;;;;;;;0.00;0.00;;;31.10;34.60;;;;;;5073002;28;20016;-77
2021/06/08 11:20:57;;;;;;;0.00;0.00;;;31.10;33.20;;;;;;5054059;28;20029;-77
2021/06/08 11:23:44;;;;;;;0.00;0.00;;;30.50;33.20;;;;;;5053462;28;20074;-82
2021/06/08 11:26:11;;;;;;;0.00;0.00;;;29.80;34.20;;;;;;5049769;28;20017;-77
2021/06/08 11:28:47;;;;;;;0.00;0.00;;;29.60;34.30;;;;;;5053625;28;20025;-78
2021/06/08 11:31:15;;;;;;;0.00;0.00;;;29.70;34.80;;;;;;5050888;28;20023;-78
2021/06/08 11:33:50;;;;;;;0.00;0.00;;;29.70;36.10;;;;;;5077600;28;20029;-78
2021/06/08 11:36:18;;;;;;;0.00;0.00;;;29.50;36.50;;;;;;5055991;28;20025;-78
2021/06/08 11:38:49;;;;;;;0.00;0.00;;;29.60;34.70;;;;;;5050600;28;20046;-78
2021/06/08 11:41:16;;;;;;;0.00;0.00;;;29.60;35.50;;;;;;5056018;28;20029;-78
2021/06/08 11:43:45;;;;;;;0.00;0.00;;;29.50;35.20;;;;;;5055261;28;20025;-78
2021/06/08 11:46:14;;;;;;;0.00;0.00;;;29.80;36.00;;;;;;5054009;28;20029;-76
2021/06/08 11:48:40;;;;;;;;;;;30.20;35.60;;;;;;5050999;28;20549;-78
2021/06/08 11:51:14;;;;;;;0.00;0.00;;;30.20;35.10;;;;;;5056457;28;19909;-78
2021/06/08 11:54:02;;;;;;;0.00;0.00;;;30.40;36.10;;;;;;5059562;28;20025;-79
2021/06/08 11:56:58;;;;;;;0.10;0.00;;;30.30;35.70;;;;;;5064487;28;20033;-78
2021/06/08 11:59:31;;;;;;;0.00;0.00;;;30.00;34.60;;;;;;5036176;28;20025;-78
2021/06/08 12:02:06;;;;;;;0.00;0.00;;;30.00;34.50;;;;;;5067139;28;20024;-78
2021/06/08 12:05:07;;;;;;;0.00;0.00;;;30.30;34.40;;;;;;5059068;28;20105;-79
2021/06/08 12:07:44;;;;;;;0.00;0.00;;;30.30;35.50;;;;;;5052520;28;20033;-78
2021/06/08 12:10:13;;;;;;;0.00;0.00;;;30.00;34.10;;;;;;5036253;28;20021;-78
2021/06/08 12:12:43;;;;;;;0.00;0.00;;;30.10;34.40;;;;;;5044834;28;20407;-78
2021/06/08 12:15:10;;;;;;;0.10;0.00;;;30.30;35.10;;;;;;5036046;28;20031;-78
2021/06/08 12:17:36;;;;;;;0.10;0.00;;;30.40;35.20;;;;;;5051507;28;20104;-78
2021/06/08 12:20:02;;;;;;;0.00;0.00;;;30.80;35.80;;;;;;5054774;28;20501;-78
2021/06/08 12:22:30;;;;;;;0.00;0.00;;;30.80;33.90;;;;;;5064290;28;20036;-78
2021/06/08 12:24:59;;;;;;;0.00;0.00;;;30.60;35.40;;;;;;5060160;28;20020;-78
2021/06/08 12:27:35;;;;;;;0.00;0.00;;;30.60;33.40;;;;;;5057732;28;20041;-79
2021/06/08 12:30:03;;;;;;;0.00;0.00;;;30.30;34.00;;;;;;5055558;28;20074;-78
2021/06/08 12:32:29;;;;;;;0.00;0.00;;;30.30;34.00;;;;;;5055616;28;20059;-79
2021/06/08 12:34:55;;;;;;;0.00;0.00;;;30.40;35.60;;;;;;5053907;28;20424;-77
2021/06/08 12:37:23;;;;;;;0.00;0.00;;;30.50;34.90;;;;;;5053818;28;20013;-77
2021/06/08 12:39:56;;;;;;;0.03;0.00;;;30.60;35.30;;;;;;5053446;28;20029;-76
2021/06/08 12:42:26;;;;;;;0.00;0.00;;;30.60;35.00;;;;;;5087879;28;20045;-76
2021/06/08 12:44:52;;;;;;;;;;;30.50;36.00;;;;;;5054766;28;20036;-77
2021/06/08 12:47:21;;;;;;;0.00;0.00;;;30.20;34.60;;;;;;5056174;28;19905;-77
2021/06/08 12:49:48;;;;;;;0.00;0.00;;;29.90;33.90;;;;;;5054423;28;20021;-77
2021/06/08 12:52:20;;;;;;;0.00;0.00;;;29.60;34.90;;;;;;5053854;28;20033;-77
2021/06/08 12:54:48;;;;;;;0.00;0.00;;;29.30;35.60;;;;;;5055583;28;20136;-77
2021/06/08 12:57:28;;;;;;;0.00;0.00;;;29.30;37.50;;;;;;5054874;28;20032;-76
2021/06/08 13:00:18;;;;;;;0.00;0.00;;;29.70;37.60;;;;;;5068894;28;20031;-76
2021/06/08 13:02:44;;;;;;;0.00;0.00;;;29.80;35.80;;;;;;5068477;28;20495;-76
2021/06/08 13:05:13;;;;;;;0.10;0.00;;;29.80;35.40;;;;;;5033473;28;20091;-76
2021/06/08 13:07:42;;;;;;;0.00;0.00;;;29.80;35.70;;;;;;5036132;28;20095;-76
2021/06/08 13:10:11;;;;;;;0.00;0.00;;;29.70;35.60;;;;;;5054567;28;20329;-75
2021/06/08 13:12:51;;;;;;;0.00;0.00;;;29.40;35.10;;;;;;5041246;28;20032;-75
2021/06/08 13:15:29;;;;;;;0.00;0.00;;;29.40;35.10;;;;;;5033590;28;20041;-76
2021/06/08 13:18:11;;;;;;;0.00;0.00;;;29.20;35.70;;;;;;5035295;28;20021;-76
2021/06/08 13:20:45;;;;;;;0.00;0.00;;;29.10;36.80;;;;;;5046785;28;20450;-76
2021/06/08 13:23:37;;;;;;;0.00;0.00;;;29.30;36.40;;;;;;5050130;28;20021;-76
2021/06/08 13:26:08;;;;;;;0.00;0.00;;;29.30;36.60;;;;;;5052701;28;20040;-76
2021/06/08 13:28:40;;;;;;;0.00;0.00;;;29.30;37.20;;;;;;5053724;28;20742;-77
2021/06/08 13:31:12;;;;;;;0.10;0.00;;;29.30;36.80;;;;;;5050496;28;20276;-77
2021/06/08 13:33:41;;;;;;;0.00;0.00;;;29.70;36.40;;;;;;5054503;28;20025;-77
2021/06/08 13:36:09;;;;;;;0.00;0.00;;;29.80;35.40;;;;;;5049020;28;20017;-77
2021/06/08 13:38:36;;;;;;;0.00;0.00;;;29.90;33.50;;;;;;5035124;28;20036;-77
2021/06/08 13:41:03;;;;;;;0.00;0.00;;;29.70;33.30;;;;;;5046559;28;20116;-76
2021/06/08 13:43:40;;;;;;;0.00;0.00;;;29.30;34.00;;;;;;5054489;28;20378;-77
2021/06/08 13:46:11;;;;;;;0.00;0.00;;;29.50;34.20;;;;;;5054348;28;20027;-77
2021/06/08 13:48:38;;;;;;;0.00;0.00;;;29.70;36.60;;;;;;5054681;28;20036;-77
2021/06/08 13:51:14;;;;;;;0.00;0.00;;;29.80;34.70;;;;;;5052126;28;20489;-77
2021/06/08 13:54:01;;;;;;;0.00;0.00;;;29.90;35.40;;;;;;5053916;28;20029;-77
2021/06/08 13:56:35;;;;;;;0.00;0.00;;;30.20;36.70;;;;;;5087147;28;20056;-77
2021/06/08 14:01:51;;;;;;;0.00;0.00;;;29.90;34.80;;;;;;5074305;28;20035;-77
2021/06/08 14:04:20;;;;;;;0.00;0.00;;;29.80;35.20;;;;;;5073615;28;20059;-77
2021/06/08 14:06:54;;;;;;;0.15;0.00;;;29.70;33.30;;;;;;5052239;28;20048;-77
2021/06/08 14:09:23;;;;;;;0.00;0.00;;;29.90;33.70;;;;;;5050292;28;20030;-77
2021/06/08 14:11:50;;;;;;;0.00;0.00;;;29.90;32.90;;;;;;5034429;28;20028;-78
2021/06/08 14:14:37;;;;;;;0.00;0.00;;;29.90;33.00;;;;;;5034363;28;20451;-76